Time;durP1;ratioP1;P1;durP2;ratioP2;P2;SDS_P1;SDS_P2;PMS_P1;PMS_P2;Temp;Humidity;BMP_temperature;BMP_pressure;BME280_temperature;BME280_humidity;BME280_pressure;Samples;Min_cycle;Max_cycle;Signal;HPM_P1;HPM_P2
2021/06/24 00:01:08;;;;;;;9.57;4.18;;;;;;;;;;5077611;28;20112;-65
2021/06/24 00:03:35;;;;;;;6.35;4.10;;;;;;;;;;5068267;28;20064;-66
2021/06/24 00:06:02;;;;;;;5.03;3.53;;;;;;;;;;5076199;28;20099;-65
2021/06/24 00:08:28;;;;;;;8.43;3.85;;;;;;;;;;5071077;28;20090;-65
2021/06/24 00:10:55;;;;;;;7.40;4.65;;;;;;;;;;5074425;28;20044;-65
2021/06/24 00:13:21;;;;;;;8.95;4.28;;;;;;;;;;5074785;28;20047;-65
2021/06/24 00:15:48;;;;;;;8.25;3.95;;;;;;;;;;5079026;28;20744;-65
2021/06/24 00:18:14;;;;;;;8.18;3.70;;;;;;;;;;5077585;28;20070;-65
2021/06/24 00:20:41;;;;;;;4.63;3.47;;;;;;;;;;5078233;28;20048;-65
2021/06/24 00:23:07;;;;;;;8.45;4.50;;;;;;;;;;5071762;28;20589;-65
2021/06/24 00:25:34;;;;;;;5.78;3.70;;;;;;;;;;5078841;28;20100;-65
2021/06/24 00:28:01;;;;;;;9.23;4.57;;;;;;;;;;5077938;28;20536;-65
2021/06/24 00:30:28;;;;;;;9.23;4.70;;;;;;;;;;5077965;28;20132;-65
2021/06/24 00:32:54;;;;;;;4.25;3.83;;;;;;;;;;5082233;28;20032;-65
2021/06/24 00:35:20;;;;;;;5.35;4.00;;;;;;;;;;5074496;28;20036;-65
2021/06/24 00:37:47;;;;;;;7.50;4.28;;;;;;;;;;5077868;28;20461;-65
2021/06/24 00:40:13;;;;;;;8.15;4.20;;;;;;;;;;5069989;28;20131;-65
2021/06/24 00:42:40;;;;;;;7.93;4.30;;;;;;;;;;5082136;28;20032;-65
2021/06/24 00:45:08;;;;;;;7.32;3.95;;;;;;;;;;5076512;28;20443;-65
2021/06/24 00:47:34;;;;;;;6.53;4.47;;;;;;;;;;5086124;28;20040;-65
2021/06/24 00:50:01;;;;;;;6.43;4.25;;;;;;;;;;5072351;28;20067;-65
2021/06/24 00:52:27;;;;;;;7.70;4.38;;;;;;;;;;5080884;28;20093;-63
2021/06/24 00:54:55;;;;;;;4.95;4.43;;;;;;;;;;5075960;28;20515;-63
2021/06/24 00:57:22;;;;;;;8.73;5.05;;;;;;;;;;5083831;28;20054;-63
2021/06/24 00:59:48;;;;;;;6.72;5.35;;;;;;;;;;5073202;28;20848;-63
2021/06/24 01:02:14;;;;;;;5.97;4.50;;;;;;;;;;5080053;28;20521;-63
2021/06/24 01:04:40;;;;;;;6.72;4.50;;;;;;;;;;5075973;28;20047;-63
2021/06/24 01:07:07;;;;;;;6.72;5.07;;;;;;;;;;5078075;28;20119;-63
2021/06/24 01:09:33;;;;;;;6.03;4.15;;;;;;;;;;5080402;28;20040;-64
2021/06/24 01:12:09;;;;;;;7.90;5.70;;;;;;;;;;5080254;28;20036;-63
2021/06/24 01:14:38;;;;;;;9.02;4.95;;;;;;;;;;5076309;28;20044;-64
2021/06/24 01:17:04;;;;;;;7.25;4.45;;;;;;;;;;5072056;28;20474;-64
2021/06/24 01:19:30;;;;;;;5.90;4.97;;;;;;;;;;5071813;28;20524;-64
2021/06/24 01:21:59;;;;;;;8.77;5.70;;;;;;;;;;5068380;28;20392;-64
2021/06/24 01:24:25;;;;;;;8.10;5.18;;;;;;;;;;5077620;28;20135;-64
2021/06/24 01:26:51;;;;;;;5.90;3.80;;;;;;;;;;5071493;28;20043;-63
2021/06/24 01:29:18;;;;;;;6.25;4.93;;;;;;;;;;5072583;28;20036;-63
2021/06/24 01:31:44;;;;;;;9.38;4.65;;;;;;;;;;5074492;28;20036;-63
2021/06/24 01:34:11;;;;;;;7.85;4.80;;;;;;;;;;5083176;28;20503;-63
2021/06/24 01:36:38;;;;;;;6.25;4.60;;;;;;;;;;5076822;28;20428;-63
2021/06/24 01:39:05;;;;;;;6.63;4.25;;;;;;;;;;5079376;28;20090;-63
2021/06/24 01:41:31;;;;;;;6.35;4.28;;;;;;;;;;5076150;28;20564;-63
2021/06/24 01:43:57;;;;;;;5.18;4.40;;;;;;;;;;5084105;28;20047;-63
2021/06/24 01:46:24;;;;;;;9.30;5.00;;;;;;;;;;5075662;28;20484;-63
2021/06/24 01:48:50;;;;;;;7.05;4.75;;;;;;;;;;5076670;28;20044;-63
2021/06/24 01:51:16;;;;;;;6.97;4.93;;;;;;;;;;5076539;28;20130;-63
2021/06/24 01:53:42;;;;;;;6.60;4.65;;;;;;;;;;5072028;28;20047;-63
2021/06/24 01:56:08;;;;;;;8.35;5.43;;;;;;;;;;5073109;28;20078;-63
2021/06/24 01:58:35;;;;;;;8.48;5.00;;;;;;;;;;5077753;28;20282;-63
2021/06/24 02:01:03;;;;;;;10.32;5.40;;;;;;;;;;5082782;28;20121;-63
2021/06/24 02:03:33;;;;;;;5.05;4.55;;;;;;;;;;5076140;28;20049;-63
2021/06/24 02:06:00;;;;;;;9.30;5.88;;;;;;;;;;5075619;28;20048;-63
2021/06/24 02:08:27;;;;;;;6.47;5.05;;;;;;;;;;5070640;28;20396;-63
2021/06/24 02:10:54;;;;;;;8.73;6.22;;;;;;;;;;5075429;28;20044;-63
2021/06/24 02:13:21;;;;;;;11.52;6.15;;;;;;;;;;5076096;28;20059;-63
2021/06/24 02:15:47;;;;;;;8.00;6.00;;;;;;;;;;5080586;28;20036;-63
2021/06/24 02:18:13;;;;;;;8.68;6.75;;;;;;;;;;5072244;28;20051;-63
2021/06/24 02:20:40;;;;;;;8.85;6.63;;;;;;;;;;5079133;28;20472;-63
2021/06/24 02:23:06;;;;;;;7.15;6.45;;;;;;;;;;5074011;28;20040;-64
2021/06/24 02:25:33;;;;;;;13.77;6.82;;;;;;;;;;5079818;28;20052;-63
2021/06/24 02:28:00;;;;;;;7.18;6.47;;;;;;;;;;5070820;28;20044;-64
2021/06/24 02:30:27;;;;;;;7.93;7.22;;;;;;;;;;5071128;28;20404;-64
2021/06/24 02:32:53;;;;;;;9.98;7.55;;;;;;;;;;5078285;28;20043;-63
2021/06/24 02:35:23;;;;;;;11.00;8.00;;;;;;;;;;5070645;28;20155;-64
2021/06/24 02:37:50;;;;;;;8.80;7.28;;;;;;;;;;5076225;28;21005;-63
2021/06/24 02:40:17;;;;;;;9.57;7.15;;;;;;;;;;5067087;28;20055;-63
2021/06/24 02:42:43;;;;;;;9.85;7.53;;;;;;;;;;5082038;28;20151;-63
2021/06/24 02:45:10;;;;;;;11.40;7.10;;;;;;;;;;5069109;28;20052;-63
2021/06/24 02:47:36;;;;;;;10.68;7.53;;;;;;;;;;5072164;28;20384;-63
2021/06/24 02:50:03;;;;;;;8.55;6.85;;;;;;;;;;5071066;28;20052;-63
2021/06/24 02:52:30;;;;;;;9.77;7.07;;;;;;;;;;5078609;28;20036;-63
2021/06/24 02:54:56;;;;;;;7.57;6.85;;;;;;;;;;5070277;28;20123;-63
2021/06/24 02:57:23;;;;;;;9.60;6.78;;;;;;;;;;5078108;28;20411;-63
2021/06/24 02:59:49;;;;;;;10.75;6.65;;;;;;;;;;5070312;28;20070;-63
2021/06/24 03:02:15;;;;;;;8.30;7.43;;;;;;;;;;5080070;28;20084;-63
2021/06/24 03:04:42;;;;;;;11.63;7.28;;;;;;;;;;5068231;28;20032;-63
2021/06/24 03:07:08;;;;;;;8.38;7.57;;;;;;;;;;5087843;28;20044;-63
2021/06/24 03:09:34;;;;;;;13.77;7.82;;;;;;;;;;5068502;28;20511;-63
2021/06/24 03:12:01;;;;;;;9.32;7.15;;;;;;;;;;5074589;28;20085;-63
2021/06/24 03:14:27;;;;;;;8.52;6.95;;;;;;;;;;5074531;28;20068;-63
2021/06/24 03:16:53;;;;;;;9.43;7.07;;;;;;;;;;5079159;28;20052;-63
2021/06/24 03:19:20;;;;;;;8.85;8.00;;;;;;;;;;5076582;28;20068;-63
2021/06/24 03:21:46;;;;;;;10.02;7.28;;;;;;;;;;5067329;28;20185;-63
2021/06/24 03:24:12;;;;;;;11.30;7.20;;;;;;;;;;5081241;28;20139;-63
2021/06/24 03:26:38;;;;;;;8.52;7.53;;;;;;;;;;5066912;28;20123;-63
2021/06/24 03:29:07;;;;;;;9.18;7.90;;;;;;;;;;5078221;28;20069;-64
2021/06/24 03:31:35;;;;;;;10.48;7.88;;;;;;;;;;5071743;28;20059;-64
2021/06/24 03:34:02;;;;;;;9.55;8.15;;;;;;;;;;5077862;28;20044;-64
2021/06/24 03:36:28;;;;;;;8.55;7.45;;;;;;;;;;5066618;28;20473;-63
2021/06/24 03:38:54;;;;;;;8.98;7.68;;;;;;;;;;5075974;28;20085;-63
2021/06/24 03:41:25;;;;;;;8.68;7.55;;;;;;;;;;5064281;28;20040;-64
2021/06/24 03:43:57;;;;;;;9.40;8.07;;;;;;;;;;5080329;28;20104;-63
2021/06/24 03:46:24;;;;;;;10.10;7.72;;;;;;;;;;5075143;28;20159;-63
2021/06/24 03:48:50;;;;;;;9.70;8.13;;;;;;;;;;5086992;28;20040;-64
2021/06/24 03:51:17;;;;;;;9.27;7.68;;;;;;;;;;5076950;28;20668;-64
2021/06/24 03:53:44;;;;;;;9.18;8.10;;;;;;;;;;5086345;28;20044;-63
2021/06/24 03:56:11;;;;;;;10.13;9.20;;;;;;;;;;5077013;28;20373;-63
2021/06/24 03:58:37;;;;;;;11.73;7.97;;;;;;;;;;5077505;28;20044;-63
2021/06/24 04:01:03;;;;;;;10.88;8.68;;;;;;;;;;5081163;28;20070;-63
2021/06/24 04:03:30;;;;;;;9.13;8.32;;;;;;;;;;5075306;28;20040;-63
2021/06/24 04:05:56;;;;;;;10.07;8.05;;;;;;;;;;5077755;28;20036;-63
2021/06/24 04:08:22;;;;;;;9.95;8.95;;;;;;;;;;5077937;28;20115;-63
2021/06/24 04:10:48;;;;;;;9.40;8.43;;;;;;;;;;5079267;28;20454;-63
2021/06/24 04:13:14;;;;;;;10.27;8.93;;;;;;;;;;5073421;28;20104;-63
2021/06/24 04:15:41;;;;;;;11.38;8.77;;;;;;;;;;5079101;28;20044;-63
2021/06/24 04:18:07;;;;;;;9.30;8.40;;;;;;;;;;5073169;28;20036;-63
2021/06/24 04:20:34;;;;;;;8.63;7.57;;;;;;;;;;5080565;28;20072;-63
2021/06/24 04:23:01;;;;;;;9.77;8.48;;;;;;;;;;5077905;28;20054;-63
2021/06/24 04:25:27;;;;;;;10.98;8.95;;;;;;;;;;5076838;28;20044;-63
2021/06/24 04:27:54;;;;;;;9.55;8.40;;;;;;;;;;5079835;28;20393;-63
2021/06/24 04:30:20;;;;;;;10.15;9.02;;;;;;;;;;5081425;28;20039;-63
2021/06/24 04:32:48;;;;;;;10.77;8.15;;;;;;;;;;5082312;28;20044;-63
2021/06/24 04:35:14;;;;;;;10.73;8.63;;;;;;;;;;5078204;28;20563;-63
2021/06/24 04:37:40;;;;;;;14.48;9.70;;;;;;;;;;5085711;28;20549;-63
2021/06/24 04:40:08;;;;;;;11.40;9.30;;;;;;;;;;5079665;28;20498;-64
2021/06/24 04:42:34;;;;;;;10.13;9.15;;;;;;;;;;5088763;28;20119;-63
2021/06/24 04:45:00;;;;;;;11.60;9.48;;;;;;;;;;5079080;28;20060;-64
2021/06/24 04:47:26;;;;;;;10.35;9.25;;;;;;;;;;5077806;28;20500;-64
2021/06/24 04:49:53;;;;;;;13.00;9.88;;;;;;;;;;5077881;28;20101;-64
2021/06/24 04:52:19;;;;;;;11.35;9.52;;;;;;;;;;5077738;28;20040;-64
2021/06/24 04:54:45;;;;;;;13.93;9.50;;;;;;;;;;5079906;28;20062;-64
2021/06/24 04:57:12;;;;;;;15.45;10.10;;;;;;;;;;5085407;28;20044;-64
2021/06/24 04:59:38;;;;;;;11.02;9.80;;;;;;;;;;5070721;28;20476;-64
2021/06/24 05:02:04;;;;;;;11.43;9.38;;;;;;;;;;5078772;28;20591;-64
2021/06/24 05:04:31;;;;;;;12.45;8.43;;;;;;;;;;5077165;28;20488;-64
2021/06/24 05:07:02;;;;;;;9.27;7.57;;;;;;;;;;5075411;28;20032;-64
2021/06/24 05:09:30;;;;;;;12.75;7.75;;;;;;;;;;5079867;28;20430;-64
2021/06/24 05:11:57;;;;;;;13.25;8.13;;;;;;;;;;5083591;28;20036;-64
2021/06/24 05:14:23;;;;;;;11.70;6.60;;;;;;;;;;5074178;28;20492;-64
2021/06/24 05:16:49;;;;;;;9.30;7.68;;;;;;;;;;5078160;28;20519;-64
2021/06/24 05:19:16;;;;;;;7.63;6.80;;;;;;;;;;5074166;28;20407;-64
2021/06/24 05:21:42;;;;;;;7.13;5.20;;;;;;;;;;5072533;28;20090;-64
2021/06/24 05:24:10;;;;;;;6.82;5.65;;;;;;;;;;5075830;28;20075;-64
2021/06/24 05:26:36;;;;;;;6.53;5.68;;;;;;;;;;5080054;28;20044;-64
2021/06/24 05:29:02;;;;;;;7.03;4.90;;;;;;;;;;5075259;28;20122;-64
2021/06/24 05:31:29;;;;;;;9.05;5.93;;;;;;;;;;5073551;28;20264;-64
2021/06/24 05:33:55;;;;;;;6.05;5.03;;;;;;;;;;5075594;28;20036;-64
2021/06/24 05:36:22;;;;;;;6.40;4.60;;;;;;;;;;5070969;28;20510;-64
2021/06/24 05:38:48;;;;;;;8.88;4.22;;;;;;;;;;5082194;28;20107;-64
2021/06/24 05:41:14;;;;;;;10.57;4.70;;;;;;;;;;5069872;28;20044;-64
2021/06/24 05:43:40;;;;;;;7.20;4.82;;;;;;;;;;5076779;28;20090;-64
2021/06/24 05:46:06;;;;;;;10.00;5.55;;;;;;;;;;5074169;28;20040;-66
2021/06/24 05:48:35;;;;;;;7.72;5.85;;;;;;;;;;5075773;28;20032;-64
2021/06/24 05:51:01;;;;;;;5.72;4.75;;;;;;;;;;5070623;28;20048;-66
2021/06/24 05:53:28;;;;;;;8.27;5.18;;;;;;;;;;5073931;28;20353;-66
2021/06/24 05:55:54;;;;;;;6.53;5.03;;;;;;;;;;5078553;28;20036;-66
2021/06/24 05:58:22;;;;;;;5.72;4.55;;;;;;;;;;5076481;28;20109;-65
2021/06/24 06:00:49;;;;;;;7.47;4.72;;;;;;;;;;5070831;28;20462;-66
2021/06/24 06:03:15;;;;;;;7.18;4.82;;;;;;;;;;5075670;28;20076;-66
2021/06/24 06:05:42;;;;;;;7.63;5.00;;;;;;;;;;5079920;28;20043;-66
2021/06/24 06:08:08;;;;;;;7.68;4.72;;;;;;;;;;5076567;28;20068;-66
2021/06/24 06:10:35;;;;;;;7.53;4.97;;;;;;;;;;5084564;28;20179;-64
2021/06/24 06:13:02;;;;;;;7.72;5.90;;;;;;;;;;5072820;28;20064;-64
2021/06/24 06:15:28;;;;;;;6.82;4.82;;;;;;;;;;5080662;28;20050;-64
2021/06/24 06:17:54;;;;;;;8.07;4.82;;;;;;;;;;5064327;28;20079;-64
2021/06/24 06:20:21;;;;;;;6.30;4.90;;;;;;;;;;5076623;28;20037;-64
2021/06/24 06:22:47;;;;;;;9.02;5.70;;;;;;;;;;5069001;28;20033;-64
2021/06/24 06:25:14;;;;;;;4.85;3.90;;;;;;;;;;5074215;28;20048;-64
2021/06/24 06:27:40;;;;;;;6.22;5.38;;;;;;;;;;5066171;28;20253;-64
2021/06/24 06:30:07;;;;;;;7.93;4.25;;;;;;;;;;5074299;28;20117;-64
2021/06/24 06:32:40;;;;;;;5.82;3.97;;;;;;;;;;5069917;28;20054;-64
2021/06/24 06:35:07;;;;;;;9.65;4.35;;;;;;;;;;5072758;28;20054;-65
2021/06/24 06:37:36;;;;;;;6.65;3.63;;;;;;;;;;5066306;28;20040;-65
2021/06/24 06:40:03;;;;;;;5.25;3.78;;;;;;;;;;5080521;28;20060;-65
2021/06/24 06:42:29;;;;;;;5.13;3.33;;;;;;;;;;5080115;28;20094;-64
2021/06/24 06:44:55;;;;;;;6.88;3.80;;;;;;;;;;5070162;28;20086;-65
2021/06/24 06:47:21;;;;;;;5.28;4.00;;;;;;;;;;5078872;28;20468;-64
2021/06/24 06:49:47;;;;;;;5.68;4.00;;;;;;;;;;5073607;28;20051;-65
2021/06/24 06:52:14;;;;;;;4.32;3.25;;;;;;;;;;5081770;28;20046;-64
2021/06/24 06:54:41;;;;;;;6.47;3.47;;;;;;;;;;5083091;28;20036;-65
2021/06/24 06:57:07;;;;;;;4.80;3.22;;;;;;;;;;5076206;28;20040;-66
2021/06/24 06:59:35;;;;;;;7.90;3.38;;;;;;;;;;5069635;28;20079;-66
2021/06/24 07:02:01;;;;;;;6.78;3.30;;;;;;;;;;5069557;28;20037;-65
2021/06/24 07:04:27;;;;;;;5.43;3.00;;;;;;;;;;5072142;28;20036;-66
2021/06/24 07:06:53;;;;;;;7.38;2.67;;;;;;;;;;5075500;28;20039;-66
2021/06/24 07:09:19;;;;;;;6.05;2.65;;;;;;;;;;5067865;28;20048;-66
2021/06/24 07:11:46;;;;;;;5.50;2.78;;;;;;;;;;5072789;28;20533;-66
2021/06/24 07:14:12;;;;;;;4.88;2.20;;;;;;;;;;5074184;28;20583;-66
2021/06/24 07:16:38;;;;;;;7.63;2.58;;;;;;;;;;5072320;28;20036;-66
2021/06/24 07:19:04;;;;;;;4.22;2.17;;;;;;;;;;5064885;28;20068;-66
2021/06/24 07:21:30;;;;;;;3.65;2.50;;;;;;;;;;5073385;28;20072;-66
2021/06/24 07:23:56;;;;;;;5.50;2.60;;;;;;;;;;5079354;28;20509;-66
2021/06/24 07:26:23;;;;;;;4.72;2.40;;;;;;;;;;5076067;28;20081;-65
2021/06/24 07:28:49;;;;;;;5.80;2.78;;;;;;;;;;5071039;28;20040;-65
2021/06/24 07:31:15;;;;;;;4.85;3.05;;;;;;;;;;5068664;28;20123;-64
2021/06/24 07:33:41;;;;;;;5.97;3.22;;;;;;;;;;5073765;28;20493;-66
2021/06/24 07:36:08;;;;;;;5.57;2.70;;;;;;;;;;5065765;28;20178;-66
2021/06/24 07:38:34;;;;;;;4.93;2.38;;;;;;;;;;5074682;28;20253;-65
2021/06/24 07:41:00;;;;;;;3.83;2.40;;;;;;;;;;5067449;28;20067;-66
2021/06/24 07:43:26;;;;;;;5.93;2.50;;;;;;;;;;5074241;28;20453;-66
2021/06/24 07:45:53;;;;;;;5.85;2.53;;;;;;;;;;5063361;28;20038;-66
2021/06/24 07:48:19;;;;;;;4.25;2.70;;;;;;;;;;5084352;28;20466;-66
2021/06/24 07:50:45;;;;;;;5.10;2.47;;;;;;;;;;5074577;28;20032;-66
2021/06/24 07:53:13;;;;;;;3.88;2.63;;;;;;;;;;5070700;28;20524;-66
2021/06/24 07:55:39;;;;;;;4.72;2.90;;;;;;;;;;5082544;28;20036;-66
2021/06/24 07:58:06;;;;;;;4.95;2.70;;;;;;;;;;5077080;28;20048;-66
2021/06/24 08:00:33;;;;;;;3.85;2.50;;;;;;;;;;5082719;28;20062;-66
2021/06/24 08:03:00;;;;;;;5.45;2.88;;;;;;;;;;5065904;28;20032;-65
2021/06/24 08:05:26;;;;;;;5.72;2.92;;;;;;;;;;5086940;28;20476;-67
2021/06/24 08:07:53;;;;;;;3.70;2.72;;;;;;;;;;5073091;28;20396;-66
2021/06/24 08:10:19;;;;;;;4.80;3.03;;;;;;;;;;5086568;28;20035;-66
2021/06/24 08:12:46;;;;;;;5.38;3.03;;;;;;;;;;5080889;28;20036;-66
2021/06/24 08:15:14;;;;;;;4.93;2.67;;;;;;;;;;5075238;28;20037;-65
2021/06/24 08:17:40;;;;;;;4.30;2.85;;;;;;;;;;5066894;28;20067;-66
2021/06/24 08:20:08;;;;;;;8.57;3.30;;;;;;;;;;5073513;28;20454;-66
2021/06/24 08:22:34;;;;;;;6.32;3.47;;;;;;;;;;5075115;28;20072;-66
2021/06/24 08:25:06;;;;;;;5.07;3.10;;;;;;;;;;5080203;28;20059;-66
2021/06/24 08:27:34;;;;;;;5.13;3.47;;;;;;;;;;5070638;28;20045;-66
2021/06/24 08:30:01;;;;;;;7.32;3.13;;;;;;;;;;5083005;28;20123;-65
2021/06/24 08:32:27;;;;;;;3.70;3.15;;;;;;;;;;5076235;28;20036;-65
2021/06/24 08:34:53;;;;;;;5.97;3.38;;;;;;;;;;5083244;28;20047;-66
2021/06/24 08:37:20;;;;;;;5.93;3.67;;;;;;;;;;5076655;28;23678;-66
2021/06/24 08:39:48;;;;;;;4.35;3.10;;;;;;;;;;5092885;28;20078;-64
2021/06/24 08:42:15;;;;;;;5.50;3.47;;;;;;;;;;5076069;28;20044;-65
2021/06/24 08:44:41;;;;;;;6.00;3.20;;;;;;;;;;5078902;28;20032;-64
2021/06/24 08:47:08;;;;;;;36.80;5.88;;;;;;;;;;5079027;28;20524;-64
2021/06/24 08:49:37;;;;;;;4.88;2.78;;;;;;;;;;5072673;28;20539;-65
2021/06/24 08:52:03;;;;;;;4.75;3.53;;;;;;;;;;5082028;28;20040;-66
2021/06/24 08:54:29;;;;;;;6.82;3.78;;;;;;;;;;5074841;28;20043;-65
2021/06/24 08:56:56;;;;;;;7.85;3.40;;;;;;;;;;5076073;28;20036;-65
2021/06/24 08:59:22;;;;;;;7.35;3.80;;;;;;;;;;5071117;28;20545;-65
2021/06/24 09:01:48;;;;;;;16.33;7.45;;;;;;;;;;5075543;28;20040;-65
2021/06/24 09:04:18;;;;;;;4.88;3.38;;;;;;;;;;5067280;28;20408;-65
2021/06/24 09:06:44;;;;;;;16.75;4.03;;;;;;;;;;5089946;28;20092;-66
2021/06/24 09:09:16;;;;;;;7.57;4.03;;;;;;;;;;5081053;28;20085;-65
2021/06/24 09:11:47;;;;;;;5.10;3.55;;;;;;;;;;5087995;28;20500;-66
2021/06/24 09:14:16;;;;;;;4.32;3.10;;;;;;;;;;5069659;28;20503;-65
2021/06/24 09:16:44;;;;;;;5.20;3.30;;;;;;;;;;5085681;28;20031;-66
2021/06/24 09:19:23;;;;;;;5.00;3.42;;;;;;;;;;5073545;28;20039;-66
2021/06/24 09:22:02;;;;;;;5.63;3.35;;;;;;;;;;5085564;28;20037;-66
2021/06/24 09:24:33;;;;;;;4.57;3.05;;;;;;;;;;5072422;28;20080;-67
2021/06/24 09:27:00;;;;;;;6.38;3.00;;;;;;;;;;5078645;28;20173;-67
2021/06/24 09:29:27;;;;;;;5.80;3.10;;;;;;;;;;5081641;28;20048;-67
2021/06/24 09:31:54;;;;;;;5.00;3.13;;;;;;;;;;5086039;28;20051;-67
2021/06/24 09:34:22;;;;;;;4.60;3.40;;;;;;;;;;5085851;28;20040;-68
2021/06/24 09:36:52;;;;;;;6.38;2.88;;;;;;;;;;5075817;28;20168;-67
2021/06/24 09:39:19;;;;;;;3.70;2.70;;;;;;;;;;5075324;28;20059;-67
2021/06/24 09:42:05;;;;;;;4.40;2.40;;;;;;;;;;5079058;28;20124;-67
2021/06/24 09:44:32;;;;;;;4.70;2.78;;;;;;;;;;5071842;28;20046;-67
2021/06/24 09:46:59;;;;;;;6.32;2.40;;;;;;;;;;5079862;28;20040;-67
2021/06/24 09:49:30;;;;;;;5.43;2.95;;;;;;;;;;5082624;28;20044;-67
2021/06/24 09:51:57;;;;;;;4.75;2.25;;;;;;;;;;5066316;28;20482;-67
2021/06/24 09:54:34;;;;;;;3.65;2.38;;;;;;;;;;5074935;28;20048;-67
2021/06/24 09:57:03;;;;;;;4.05;2.17;;;;;;;;;;5070738;28;20549;-67
2021/06/24 09:59:37;;;;;;;3.78;2.20;;;;;;;;;;5075535;28;20037;-67
2021/06/24 10:02:13;;;;;;;2.58;1.92;;;;;;;;;;5066065;28;20039;-67
2021/06/24 10:04:43;;;;;;;3.40;2.20;;;;;;;;;;5072077;28;20043;-65
2021/06/24 10:07:12;;;;;;;2.97;2.20;;;;;;;;;;5072259;28;20047;-65
2021/06/24 10:09:39;;;;;;;4.03;2.10;;;;;;;;;;5076301;28;20102;-65
2021/06/24 10:12:05;;;;;;;3.60;1.98;;;;;;;;;;5067670;28;20070;-65
2021/06/24 10:14:32;;;;;;;4.43;1.73;;;;;;;;;;5079831;28;20386;-65
2021/06/24 10:16:59;;;;;;;4.68;2.10;;;;;;;;;;5073454;28;20040;-65
2021/06/24 10:19:36;;;;;;;3.78;1.90;;;;;;;;;;5077101;28;20028;-65
2021/06/24 10:22:13;;;;;;;3.15;2.00;;;;;;;;;;5069434;28;20036;-66
2021/06/24 10:24:39;;;;;;;3.67;2.10;;;;;;;;;;5072397;28;20098;-66
2021/06/24 10:27:08;;;;;;;4.45;2.00;;;;;;;;;;5069880;28;20090;-66
2021/06/24 10:30:03;;;;;;;5.70;2.03;;;;;;;;;;5069877;28;20101;-66
2021/06/24 10:32:31;;;;;;;3.38;2.10;;;;;;;;;;5058737;28;20487;-66
2021/06/24 10:34:59;;;;;;;2.88;1.75;;;;;;;;;;5088443;28;20032;-66
2021/06/24 10:37:26;;;;;;;3.80;2.20;;;;;;;;;;5075460;28;20047;-66
2021/06/24 10:39:55;;;;;;;3.85;1.77;;;;;;;;;;5078088;28;20131;-66
2021/06/24 10:42:22;;;;;;;3.78;1.75;;;;;;;;;;5072816;28;20089;-66
2021/06/24 10:44:55;;;;;;;4.15;1.85;;;;;;;;;;5076633;28;20059;-66
2021/06/24 10:47:35;;;;;;;2.90;1.85;;;;;;;;;;5071161;28;20770;-66
2021/06/24 10:50:37;;;;;;;4.33;2.47;;;;;;;;;;5082965;28;20067;-66
2021/06/24 10:53:16;;;;;;;4.05;1.85;;;;;;;;;;5071842;28;20037;-66
2021/06/24 10:55:50;;;;;;;2.85;1.75;;;;;;;;;;5073200;28;20059;-66
2021/06/24 10:58:19;;;;;;;4.07;1.50;;;;;;;;;;5075138;28;20056;-66
2021/06/24 11:00:45;;;;;;;2.42;1.63;;;;;;;;;;5081432;28;20607;-66
2021/06/24 11:03:13;;;;;;;4.38;1.70;;;;;;;;;;5075203;28;20050;-70
2021/06/24 11:05:49;;;;;;;5.63;2.40;;;;;;;;;;5081459;28;20044;-70
2021/06/24 11:08:35;;;;;;;2.78;1.88;;;;;;;;;;5075395;28;20036;-70
2021/06/24 11:11:09;;;;;;;3.08;1.90;;;;;;;;;;5085158;28;20064;-69
2021/06/24 11:13:41;;;;;;;4.93;1.75;;;;;;;;;;5069961;28;20046;-69
2021/06/24 11:16:07;;;;;;;4.18;1.73;;;;;;;;;;5076901;28;20488;-70
2021/06/24 11:18:34;;;;;;;3.95;1.77;;;;;;;;;;5068717;28;20043;-69
2021/06/24 11:21:04;;;;;;;2.47;1.75;;;;;;;;;;5074293;28;20059;-69
2021/06/24 11:23:31;;;;;;;4.32;1.90;;;;;;;;;;5067571;28;20040;-70
2021/06/24 11:26:11;;;;;;;3.17;1.70;;;;;;;;;;5082116;28;20059;-70
2021/06/24 11:28:47;;;;;;;6.68;2.05;;;;;;;;;;5070742;28;20369;-70
2021/06/24 11:31:15;;;;;;;2.50;1.90;;;;;;;;;;5082552;28;20106;-70
2021/06/24 11:33:53;;;;;;;5.57;1.77;;;;;;;;;;5078402;28;20072;-64
2021/06/24 11:36:20;;;;;;;3.30;2.00;;;;;;;;;;5081239;28;20040;-64
2021/06/24 11:38:47;;;;;;;3.55;2.55;;;;;;;;;;5075739;28;20044;-64
2021/06/24 11:41:18;;;;;;;3.28;2.35;;;;;;;;;;5069667;28;20415;-64
2021/06/24 11:43:57;;;;;;;5.10;2.40;;;;;;;;;;5077836;28;20036;-63
2021/06/24 11:46:34;;;;;;;3.95;1.95;;;;;;;;;;5073680;28;20119;-66
2021/06/24 12:05:31;;;;;;;2.42;1.58;;;;;;;;;;5073019;28;20063;-66
2021/06/24 12:07:57;;;;;;;3.92;1.98;;;;;;;;;;5075925;28;20108;-66
2021/06/24 12:10:23;;;;;;;4.43;1.88;;;;;;;;;;5068877;28;20114;-66
2021/06/24 12:12:50;;;;;;;2.88;1.67;;;;;;;;;;5078653;28;20389;-66
2021/06/24 12:15:16;;;;;;;2.55;1.60;;;;;;;;;;5077494;28;20402;-66
2021/06/24 12:17:43;;;;;;;2.40;1.42;;;;;;;;;;5070439;28;20380;-66
2021/06/24 12:20:09;;;;;;;2.55;1.50;;;;;;;;;;5081456;28;20377;-66
2021/06/24 12:22:41;;;;;;;4.10;1.80;;;;;;;;;;5073631;28;20484;-66
2021/06/24 12:25:09;;;;;;;2.10;1.35;;;;;;;;;;5076838;28;20485;-66
2021/06/24 12:27:40;;;;;;;2.75;1.33;;;;;;;;;;5082606;28;20094;-66
2021/06/24 12:30:14;;;;;;;2.40;1.33;;;;;;;;;;5084183;28;20040;-67
2021/06/24 12:32:51;;;;;;;3.60;1.67;;;;;;;;;;5076620;28;20113;-67
2021/06/24 12:35:25;;;;;;;3.30;1.60;;;;;;;;;;5079074;28;20060;-67
2021/06/24 12:37:52;;;;;;;2.15;1.45;;;;;;;;;;5073144;28;20123;-67
2021/06/24 12:40:20;;;;;;;2.25;1.48;;;;;;;;;;5077297;28;20052;-67
2021/06/24 12:42:48;;;;;;;3.08;1.67;;;;;;;;;;5070224;28;20044;-68
2021/06/24 12:45:18;;;;;;;2.80;1.63;;;;;;;;;;5077027;28;20072;-68
2021/06/24 12:47:45;;;;;;;3.25;1.30;;;;;;;;;;5073906;28;20056;-67
2021/06/24 12:50:11;;;;;;;3.08;1.42;;;;;;;;;;5078219;28;20044;-66
2021/06/24 12:52:43;;;;;;;1.88;1.58;;;;;;;;;;5076028;28;20055;-66
2021/06/24 12:55:10;;;;;;;5.05;1.88;;;;;;;;;;5077990;28;20431;-66
2021/06/24 12:57:36;;;;;;;2.75;1.80;;;;;;;;;;5080283;28;20398;-66
2021/06/24 13:00:02;;;;;;;3.58;1.70;;;;;;;;;;5081537;28;20482;-66
2021/06/24 13:02:28;;;;;;;2.88;1.75;;;;;;;;;;5075264;28;21814;-66
2021/06/24 13:04:54;;;;;;;2.83;1.58;;;;;;;;;;5081688;28;20040;-66
2021/06/24 13:07:21;;;;;;;4.57;2.00;;;;;;;;;;5076981;28;20040;-66
2021/06/24 13:09:47;;;;;;;3.33;2.10;;;;;;;;;;5073267;28;20154;-66
2021/06/24 13:12:16;;;;;;;3.63;1.63;;;;;;;;;;5073047;28;20119;-66
2021/06/24 13:14:44;;;;;;;3.72;1.30;;;;;;;;;;5070531;28;20064;-66
2021/06/24 13:17:15;;;;;;;3.22;1.50;;;;;;;;;;5075648;28;20037;-66
2021/06/24 13:19:52;;;;;;;2.60;1.60;;;;;;;;;;5081420;28;20032;-66
2021/06/24 13:22:20;;;;;;;3.20;1.48;;;;;;;;;;5081741;28;20045;-65
2021/06/24 13:24:55;;;;;;;3.20;1.67;;;;;;;;;;5071403;28;20076;-65
2021/06/24 13:27:21;;;;;;;4.78;2.33;;;;;;;;;;5079387;28;20108;-66
2021/06/24 13:29:58;;;;;;;2.47;1.73;;;;;;;;;;5071194;28;20495;-65
2021/06/24 13:32:43;;;;;;;2.97;1.77;;;;;;;;;;5075560;28;20510;-65
2021/06/24 13:35:16;;;;;;;2.97;1.70;;;;;;;;;;5071264;28;20338;-65
2021/06/24 13:37:51;;;;;;;3.90;1.40;;;;;;;;;;5079354;28;20078;-65
2021/06/24 13:40:19;;;;;;;3.45;1.70;;;;;;;;;;5070767;28;20286;-65
2021/06/24 13:42:52;;;;;;;2.38;1.95;;;;;;;;;;5077271;28;20024;-65
2021/06/24 13:45:19;;;;;;;4.72;2.03;;;;;;;;;;5072702;28;20041;-65
2021/06/24 13:47:45;;;;;;;4.57;1.83;;;;;;;;;;5081112;28;20480;-65
2021/06/24 13:50:12;;;;;;;3.72;2.20;;;;;;;;;;5072801;28;20139;-65
2021/06/24 13:52:38;;;;;;;3.35;2.13;;;;;;;;;;5078483;28;20149;-65
2021/06/24 13:55:05;;;;;;;1.70;1.52;;;;;;;;;;5075001;28;20387;-66
2021/06/24 13:57:32;;;;;;;4.00;1.85;;;;;;;;;;5077649;28;20062;-65
2021/06/24 13:59:58;;;;;;;3.97;2.00;;;;;;;;;;5073664;28;20045;-65
2021/06/24 14:02:24;;;;;;;3.47;2.45;;;;;;;;;;5073972;28;20044;-65
2021/06/24 14:04:50;;;;;;;5.75;2.90;;;;;;;;;;5074496;28;20033;-65
2021/06/24 14:07:17;;;;;;;4.70;2.55;;;;;;;;;;5089480;28;20040;-65
2021/06/24 14:09:43;;;;;;;4.82;2.30;;;;;;;;;;5085225;28;20048;-65
2021/06/24 14:12:10;;;;;;;5.72;2.40;;;;;;;;;;5074157;28;20069;-65
2021/06/24 14:14:36;;;;;;;4.00;2.50;;;;;;;;;;5080818;28;20039;-65
2021/06/24 14:17:02;;;;;;;4.40;2.88;;;;;;;;;;5066671;28;20047;-65
2021/06/24 14:19:28;;;;;;;4.68;2.75;;;;;;;;;;5077451;28;20048;-64
2021/06/24 14:22:03;;;;;;;4.85;3.17;;;;;;;;;;5074588;28;20056;-64
2021/06/24 14:24:30;;;;;;;3.60;3.20;;;;;;;;;;5084582;28;20040;-65
2021/06/24 14:26:56;;;;;;;5.07;3.03;;;;;;;;;;5077827;28;20146;-64
2021/06/24 14:29:23;;;;;;;3.92;3.53;;;;;;;;;;5078526;28;20097;-65
2021/06/24 14:31:49;;;;;;;4.15;3.20;;;;;;;;;;5078504;28;20093;-64
2021/06/24 14:34:15;;;;;;;6.18;3.70;;;;;;;;;;5075587;28;20161;-64
2021/06/24 14:36:42;;;;;;;4.03;2.90;;;;;;;;;;5071793;28;20276;-64
2021/06/24 14:39:09;;;;;;;3.30;3.00;;;;;;;;;;5081828;28;20089;-64
2021/06/24 14:41:36;;;;;;;5.10;3.30;;;;;;;;;;5068315;28;20128;-64
2021/06/24 14:44:03;;;;;;;6.13;3.17;;;;;;;;;;5072753;28;20063;-64
2021/06/24 14:46:29;;;;;;;4.22;3.00;;;;;;;;;;5070313;28;20408;-64
2021/06/24 14:48:55;;;;;;;3.75;3.45;;;;;;;;;;5075758;28;20400;-64
2021/06/24 14:51:22;;;;;;;5.15;3.00;;;;;;;;;;5075216;28;20036;-64
2021/06/24 14:53:48;;;;;;;2.70;2.47;;;;;;;;;;5079369;28;20032;-64
2021/06/24 14:56:16;;;;;;;3.85;2.90;;;;;;;;;;5076195;28;20036;-64
2021/06/24 14:58:42;;;;;;;3.72;2.97;;;;;;;;;;5072707;28;20334;-64
2021/06/24 15:01:09;;;;;;;3.67;3.00;;;;;;;;;;5079405;28;20493;-64